Time;durP1;ratioP1;P1;durP2;ratioP2;P2;SDS_P1;SDS_P2;PMS_P1;PMS_P2;Temp;Humidity;BMP_temperature;BMP_pressure;BME280_temperature;BME280_humidity;BME280_pressure;Samples;Min_cycle;Max_cycle;Signal;HPM_P1;HPM_P2
2023/04/11 00:00:18;;;;;;;2.67;2.30;;;13.90;99.20;;;;;;4993640;28;20208;-73
2023/04/11 00:02:45;;;;;;;3.70;3.50;;;13.90;99.40;;;;;;5003217;28;20693;-73
2023/04/11 00:05:11;;;;;;;2.10;1.90;;;14.00;99.30;;;;;;5009884;28;20178;-74
2023/04/11 00:07:36;;;;;;;1.90;1.70;;;14.00;99.20;;;;;;5007165;28;20429;-73
2023/04/11 00:10:02;;;;;;;3.27;2.13;;;14.00;99.20;;;;;;4993846;28;20223;-74
2023/04/11 00:12:27;;;;;;;8.13;2.03;;;14.00;99.00;;;;;;4995523;28;20179;-72
2023/04/11 00:14:53;;;;;;;3.23;1.93;;;14.00;99.00;;;;;;4993006;28;20178;-73
2023/04/11 00:17:20;;;;;;;6.90;2.63;;;14.00;98.70;;;;;;5000187;28;20176;-73
2023/04/11 00:19:47;;;;;;;2.30;2.10;;;14.10;98.70;;;;;;5002455;28;20571;-73
2023/04/11 00:22:14;;;;;;;2.33;2.13;;;14.10;98.60;;;;;;4992842;28;20526;-73
2023/04/11 00:24:39;;;;;;;2.50;2.30;;;14.10;99.90;;;;;;5003796;28;21025;-73
2023/04/11 00:27:05;;;;;;;3.17;2.20;;;14.00;99.90;;;;;;4994225;28;20442;-73
2023/04/11 00:29:32;;;;;;;2.30;2.10;;;13.80;99.90;;;;;;4999028;28;20208;-74
2023/04/11 00:31:59;;;;;;;4.47;2.20;;;13.60;99.90;;;;;;5000751;28;20277;-73
2023/04/11 00:34:25;;;;;;;2.50;2.30;;;13.70;99.90;;;;;;4988657;28;20569;-73
2023/04/11 00:36:51;;;;;;;2.63;2.30;;;13.80;99.90;;;;;;4994534;28;20431;-72
2023/04/11 00:39:17;;;;;;;2.13;2.00;;;13.90;99.90;;;;;;5005458;28;20507;-73
2023/04/11 00:41:43;;;;;;;3.60;2.13;;;14.00;99.90;;;;;;5004203;28;20183;-73
2023/04/11 00:44:10;;;;;;;3.60;2.30;;;14.00;99.90;;;;;;5006911;28;20553;-72
2023/04/11 00:46:35;;;;;;;2.20;2.10;;;14.10;99.90;;;;;;4992434;28;20199;-73
2023/04/11 00:49:01;;;;;;;2.53;2.33;;;14.10;99.90;;;;;;4997482;28;20489;-73
2023/04/11 00:51:27;;;;;;;3.87;2.10;;;14.10;99.90;;;;;;5004143;28;20637;-73
2023/04/11 00:53:53;;;;;;;2.97;2.20;;;14.10;99.90;;;;;;4988827;28;20180;-73
2023/04/11 00:56:19;;;;;;;2.70;2.50;;;14.00;99.90;;;;;;5003589;28;20187;-74
2023/04/11 00:58:45;;;;;;;2.13;2.00;;;13.90;99.90;;;;;;5005707;28;20485;-73
2023/04/11 01:01:10;;;;;;;3.03;2.07;;;13.90;99.90;;;;;;5011466;28;20492;-73
2023/04/11 01:03:38;;;;;;;2.77;2.50;;;13.90;99.90;;;;;;5005408;28;20249;-72
2023/04/11 01:06:08;;;;;;;2.00;1.80;;;14.00;99.90;;;;;;5001472;28;20179;-73
2023/04/11 01:08:35;;;;;;;2.43;1.90;;;14.00;99.90;;;;;;4993221;28;20911;-73
2023/04/11 01:11:02;;;;;;;2.57;2.30;;;13.80;99.90;;;;;;4990318;28;20836;-73
2023/04/11 01:13:30;;;;;;;2.30;2.10;;;13.70;99.90;;;;;;5011561;28;20437;-73
2023/04/11 01:15:55;;;;;;;2.50;2.33;;;13.70;99.90;;;;;;5004342;28;20517;-73
2023/04/11 01:18:21;;;;;;;2.33;2.00;;;13.80;99.90;;;;;;4996521;28;21018;-73
2023/04/11 01:20:47;;;;;;;2.30;2.10;;;13.80;99.90;;;;;;4998627;28;20187;-73
2023/04/11 01:23:13;;;;;;;2.87;2.40;;;13.90;99.90;;;;;;4991817;28;20207;-74
2023/04/11 01:25:39;;;;;;;2.47;1.90;;;13.90;99.90;;;;;;4998404;28;20179;-73
2023/04/11 01:28:07;;;;;;;2.40;2.20;;;14.00;99.90;;;;;;4999515;28;20431;-71
2023/04/11 01:30:33;;;;;;;2.90;2.03;;;13.90;99.90;;;;;;4997031;28;20216;-73
2023/04/11 01:32:58;;;;;;;4.33;3.10;;;13.90;99.90;;;;;;4997994;28;20447;-73
2023/04/11 01:35:24;;;;;;;2.47;2.23;;;13.60;99.90;;;;;;5003896;28;20219;-73
2023/04/11 01:37:49;;;;;;;3.67;2.50;;;13.10;99.90;;;;;;5005226;28;20181;-73
2023/04/11 01:40:17;;;;;;;3.37;2.50;;;12.90;99.90;;;;;;4994967;28;20211;-74
2023/04/11 01:42:44;;;;;;;3.10;2.90;;;12.70;99.90;;;;;;4996121;28;20171;-73
2023/04/11 01:45:11;;;;;;;3.47;2.73;;;12.50;99.90;;;;;;5000826;28;20426;-73
2023/04/11 01:47:37;;;;;;;3.80;2.80;;;12.50;99.90;;;;;;5002938;28;20442;-74
2023/04/11 01:50:04;;;;;;;3.47;2.83;;;12.30;99.90;;;;;;4995254;28;20937;-74
2023/04/11 01:52:29;;;;;;;4.53;3.10;;;12.20;99.90;;;;;;5005041;28;20530;-73
2023/04/11 01:54:55;;;;;;;4.03;2.40;;;12.20;99.90;;;;;;4993306;28;20453;-73
2023/04/11 01:57:20;;;;;;;2.60;2.40;;;12.20;99.90;;;;;;4998501;28;20179;-74
2023/04/11 01:59:46;;;;;;;2.80;2.60;;;12.10;99.90;;;;;;4995761;28;20676;-74
2023/04/11 02:02:11;;;;;;;2.70;2.50;;;12.10;99.90;;;;;;4996275;28;20591;-72
2023/04/11 02:04:37;;;;;;;4.03;2.80;;;12.00;99.90;;;;;;4996019;28;20238;-74
2023/04/11 02:07:02;;;;;;;2.70;2.40;;;12.10;99.90;;;;;;4999913;28;20191;-74
2023/04/11 02:09:28;;;;;;;3.90;2.40;;;12.10;99.90;;;;;;5006791;28;20252;-73
2023/04/11 02:11:53;;;;;;;2.63;2.50;;;12.00;99.90;;;;;;5007580;28;20233;-75
2023/04/11 02:14:19;;;;;;;4.47;3.20;;;11.90;99.90;;;;;;4975366;28;20602;-74
2023/04/11 02:16:55;;;;;;;2.73;2.53;;;11.80;99.90;;;;;;4997406;28;20255;-73
2023/04/11 02:19:22;;;;;;;2.83;2.53;;;11.70;99.90;;;;;;4990210;28;20207;-73
2023/04/11 02:21:48;;;;;;;2.77;2.47;;;11.50;99.90;;;;;;5009408;28;20521;-73
2023/04/11 02:24:13;;;;;;;2.70;2.50;;;11.40;99.90;;;;;;5011021;28;20520;-73
2023/04/11 02:26:41;;;;;;;4.67;2.50;;;11.40;99.90;;;;;;4996076;28;20259;-73
2023/04/11 02:29:06;;;;;;;2.50;1.47;;;11.30;99.90;;;;;;4991692;28;20203;-73
2023/04/11 02:31:32;;;;;;;3.93;1.50;;;11.20;99.90;;;;;;4998807;28;20446;-73
2023/04/11 02:33:57;;;;;;;1.70;1.60;;;10.90;99.90;;;;;;5005420;28;20258;-74
2023/04/11 02:36:23;;;;;;;3.10;1.47;;;10.80;99.90;;;;;;5006561;28;20672;-74
2023/04/11 02:38:48;;;;;;;1.80;1.23;;;10.80;99.90;;;;;;5000234;28;20225;-73
2023/04/11 02:41:14;;;;;;;2.37;1.37;;;10.60;99.90;;;;;;4997562;28;20617;-74
2023/04/11 02:43:39;;;;;;;1.97;1.00;;;10.60;99.90;;;;;;5003983;28;20183;-74
2023/04/11 02:46:05;;;;;;;1.30;1.20;;;10.50;99.90;;;;;;5003667;28;20642;-74
2023/04/11 02:48:31;;;;;;;3.03;1.40;;;10.40;99.90;;;;;;5009754;28;20368;-74
2023/04/11 02:50:56;;;;;;;2.03;1.10;;;10.40;99.90;;;;;;5007767;28;20175;-74
2023/04/11 02:53:22;;;;;;;2.03;1.10;;;10.30;99.90;;;;;;4995853;28;20659;-74
2023/04/11 02:55:48;;;;;;;1.87;1.77;;;10.20;99.90;;;;;;4983991;28;20209;-73
2023/04/11 02:58:16;;;;;;;1.30;1.17;;;10.30;99.90;;;;;;4999720;28;20171;-74
2023/04/11 03:00:45;;;;;;;2.53;1.20;;;10.30;99.90;;;;;;5006682;28;20720;-74
2023/04/11 03:03:11;;;;;;;5.70;1.60;;;10.30;99.90;;;;;;5005702;28;20442;-74
2023/04/11 03:05:37;;;;;;;1.83;1.20;;;10.40;99.90;;;;;;4997436;28;20940;-73
2023/04/11 03:08:02;;;;;;;3.30;1.10;;;10.40;99.90;;;;;;4994610;28;20180;-74
2023/04/11 03:10:28;;;;;;;2.67;1.23;;;10.40;99.90;;;;;;5009816;28;20465;-74
2023/04/11 03:12:53;;;;;;;1.10;1.00;;;10.40;99.90;;;;;;5005304;28;20202;-73
2023/04/11 03:15:19;;;;;;;3.43;1.10;;;10.30;99.90;;;;;;5001183;28;20262;-74
2023/04/11 03:17:45;;;;;;;1.40;1.30;;;10.30;99.90;;;;;;4987878;28;20188;-74
2023/04/11 03:20:12;;;;;;;1.90;1.30;;;10.20;99.90;;;;;;5011352;28;20230;-74
2023/04/11 03:22:38;;;;;;;1.30;1.20;;;10.20;99.90;;;;;;5001383;28;20434;-71
2023/04/11 03:25:05;;;;;;;1.17;1.07;;;10.10;99.90;;;;;;4987347;28;20493;-74
2023/04/11 03:27:30;;;;;;;4.33;2.00;;;10.10;99.90;;;;;;5001520;28;20481;-73
2023/04/11 03:29:56;;;;;;;2.73;1.10;;;10.10;99.90;;;;;;5004624;28;20879;-74
2023/04/11 03:32:22;;;;;;;1.87;1.00;;;10.10;99.90;;;;;;4999874;28;20258;-74
2023/04/11 03:34:49;;;;;;;4.27;1.20;;;10.00;99.90;;;;;;4997917;28;20171;-74
2023/04/11 03:37:15;;;;;;;1.63;1.53;;;10.00;99.90;;;;;;5000798;28;20430;-74
2023/04/11 03:39:40;;;;;;;1.47;1.27;;;10.00;99.90;;;;;;5026756;23;20495;-71
2023/04/11 03:42:06;;;;;;;10.40;1.67;;;10.00;99.90;;;;;;5025215;28;20266;-71
2023/04/11 03:44:31;;;;;;;5.77;1.07;;;9.90;99.90;;;;;;5029116;28;20182;-71
2023/04/11 03:46:57;;;;;;;1.23;1.00;;;9.90;99.90;;;;;;5029063;28;20182;-71
2023/04/11 03:49:22;;;;;;;2.87;1.17;;;10.00;99.90;;;;;;5025553;28;20225;-71
2023/04/11 03:51:48;;;;;;;3.23;1.37;;;10.00;99.90;;;;;;5013491;28;20869;-71
2023/04/11 03:54:13;;;;;;;0.80;0.80;;;10.00;99.90;;;;;;5018297;28;20677;-71
2023/04/11 03:56:39;;;;;;;1.20;1.10;;;10.10;99.90;;;;;;5024005;28;20178;-71
2023/04/11 03:59:05;;;;;;;2.00;1.10;;;10.10;99.90;;;;;;5019543;28;20365;-71
2023/04/11 04:01:31;;;;;;;1.50;1.07;;;10.10;99.90;;;;;;5013398;28;21001;-71
2023/04/11 04:03:56;;;;;;;1.43;1.00;;;10.10;99.90;;;;;;5015032;28;20186;-71
2023/04/11 04:06:22;;;;;;;1.30;1.20;;;10.10;99.90;;;;;;5022439;28;20437;-71
2023/04/11 04:08:47;;;;;;;3.47;1.43;;;10.10;99.90;;;;;;5021782;28;20202;-71
2023/04/11 04:11:13;;;;;;;1.13;1.03;;;10.10;99.90;;;;;;5020605;28;20198;-71
2023/04/11 04:13:38;;;;;;;1.73;1.63;;;10.10;99.90;;;;;;5013010;28;20174;-71
2023/04/11 04:16:04;;;;;;;2.30;1.20;;;10.00;99.90;;;;;;5017245;28;20866;-71
2023/04/11 04:18:30;;;;;;;2.40;0.77;;;10.00;99.90;;;;;;5016731;28;20207;-71
2023/04/11 04:20:55;;;;;;;3.47;1.73;;;9.90;99.90;;;;;;5011095;28;20179;-71
2023/04/11 04:23:22;;;;;;;2.33;1.33;;;9.90;99.90;;;;;;5019848;28;20190;-71
2023/04/11 04:25:49;;;;;;;2.07;1.40;;;9.90;99.90;;;;;;5010795;28;20211;-71
2023/04/11 04:28:19;;;;;;;3.13;1.10;;;9.90;99.90;;;;;;4998910;28;20425;-71
2023/04/11 04:30:48;;;;;;;1.43;1.20;;;9.80;99.90;;;;;;5011542;28;20469;-71
2023/04/11 04:33:17;;;;;;;1.37;1.27;;;9.70;99.90;;;;;;5010395;28;20441;-71
2023/04/11 04:35:43;;;;;;;3.50;1.53;;;9.60;99.90;;;;;;5017701;28;20997;-71
2023/04/11 04:38:08;;;;;;;2.43;1.23;;;9.60;99.90;;;;;;5009239;28;20433;-71
2023/04/11 04:40:36;;;;;;;1.33;1.13;;;9.50;99.90;;;;;;5011636;28;20744;-71
2023/04/11 04:43:02;;;;;;;1.83;1.00;;;9.50;99.90;;;;;;5018772;28;20304;-71
2023/04/11 04:45:28;;;;;;;2.43;1.43;;;9.50;99.90;;;;;;5015150;28;20442;-71
2023/04/11 04:47:53;;;;;;;3.40;1.10;;;9.50;99.90;;;;;;5012745;28;20197;-71
2023/04/11 04:50:19;;;;;;;3.53;1.37;;;9.50;99.90;;;;;;5003006;28;20238;-71
2023/04/11 04:52:45;;;;;;;3.10;1.20;;;9.50;99.90;;;;;;5010634;28;20644;-71
2023/04/11 04:55:11;;;;;;;2.00;1.83;;;9.50;99.90;;;;;;5014946;28;20471;-71
2023/04/11 04:57:36;;;;;;;3.87;1.30;;;9.50;99.90;;;;;;5010934;28;20232;-71
2023/04/11 05:00:06;;;;;;;2.37;1.27;;;9.50;99.90;;;;;;5014133;28;20198;-71
2023/04/11 05:02:33;;;;;;;2.03;1.17;;;9.50;99.90;;;;;;5002109;28;20179;-71
2023/04/11 05:05:02;;;;;;;5.07;1.40;;;9.60;99.90;;;;;;5004939;28;20589;-71
2023/04/11 05:07:28;;;;;;;2.03;1.10;;;9.50;99.90;;;;;;5010508;28;20281;-70
2023/04/11 05:09:54;;;;;;;2.50;1.10;;;9.50;99.90;;;;;;5016722;28;20473;-71
2023/04/11 05:12:25;;;;;;;1.47;0.90;;;9.40;99.90;;;;;;5012626;28;20179;-71
2023/04/11 05:14:51;;;;;;;5.20;1.10;;;9.30;99.90;;;;;;5020319;28;20651;-71
2023/04/11 05:17:17;;;;;;;0.80;0.80;;;9.10;99.90;;;;;;5009650;28;20564;-71
2023/04/11 05:19:43;;;;;;;1.33;0.97;;;9.00;99.90;;;;;;5016295;28;20901;-71
2023/04/11 05:22:08;;;;;;;3.30;1.03;;;8.90;99.90;;;;;;5021932;28;20182;-71
2023/04/11 05:24:34;;;;;;;0.87;0.83;;;8.80;99.90;;;;;;5010612;28;20190;-71
2023/04/11 05:26:59;;;;;;;1.20;1.10;;;8.80;99.90;;;;;;5007180;28;20201;-71
2023/04/11 05:29:25;;;;;;;1.33;1.03;;;8.70;99.90;;;;;;5009933;28;20297;-71
2023/04/11 05:31:50;;;;;;;2.77;1.33;;;8.60;99.90;;;;;;5014785;28;20643;-71
2023/04/11 05:34:16;;;;;;;1.00;0.70;;;8.60;99.90;;;;;;5018657;28;20586;-71
2023/04/11 05:36:41;;;;;;;2.13;0.90;;;8.50;99.90;;;;;;5011605;28;20618;-71
2023/04/11 05:39:07;;;;;;;4.37;1.20;;;8.50;99.90;;;;;;5015000;28;20210;-71
2023/04/11 05:41:32;;;;;;;1.80;0.80;;;8.50;99.90;;;;;;5021842;28;20187;-71
2023/04/11 05:43:58;;;;;;;1.17;1.00;;;8.50;99.90;;;;;;5018880;28;20702;-71
2023/04/11 05:46:24;;;;;;;1.40;0.90;;;8.50;99.90;;;;;;5010321;28;20221;-71
2023/04/11 05:48:49;;;;;;;2.93;1.33;;;8.50;99.90;;;;;;5008818;28;20202;-71
2023/04/11 05:51:15;;;;;;;2.50;1.10;;;8.50;99.90;;;;;;5007062;28;20189;-71
2023/04/11 05:53:40;;;;;;;1.23;1.10;;;8.50;99.90;;;;;;5010080;28;20187;-70
2023/04/11 05:56:06;;;;;;;1.03;0.93;;;8.40;99.90;;;;;;5004703;28;20183;-71
2023/04/11 05:58:33;;;;;;;2.40;1.47;;;8.40;99.90;;;;;;5006895;28;20193;-71
2023/04/11 06:00:59;;;;;;;1.90;1.07;;;8.50;99.90;;;;;;5005744;28;20426;-71
2023/04/11 06:03:25;;;;;;;2.47;1.10;;;8.40;99.90;;;;;;4982900;28;20477;-70
2023/04/11 06:05:52;;;;;;;2.20;1.13;;;8.40;99.90;;;;;;5008781;28;20504;-70
2023/04/11 06:08:17;;;;;;;3.60;1.30;;;8.40;99.90;;;;;;5014497;28;20999;-70
2023/04/11 06:10:43;;;;;;;2.53;1.00;;;8.40;99.90;;;;;;5000821;28;20595;-70
2023/04/11 06:13:08;;;;;;;1.33;1.20;;;8.40;99.90;;;;;;5013470;28;20233;-71
2023/04/11 06:15:34;;;;;;;2.23;1.07;;;8.40;99.90;;;;;;5018339;28;20186;-71
2023/04/11 06:17:59;;;;;;;2.67;1.50;;;8.40;99.90;;;;;;5022649;28;20281;-71
2023/04/11 06:20:25;;;;;;;2.70;1.60;;;8.50;99.90;;;;;;5013981;28;20202;-70
2023/04/11 06:22:51;;;;;;;2.13;1.60;;;8.60;99.90;;;;;;5017621;28;20198;-71
2023/04/11 06:25:18;;;;;;;2.03;1.27;;;8.60;99.90;;;;;;5020461;28;20189;-71
2023/04/11 06:27:44;;;;;;;4.13;1.30;;;8.70;99.90;;;;;;5013766;28;20657;-70
2023/04/11 06:30:10;;;;;;;3.70;1.90;;;8.70;99.90;;;;;;5011760;28;20496;-71
2023/04/11 06:32:35;;;;;;;3.00;1.20;;;8.70;99.90;;;;;;5010034;28;20262;-71
2023/04/11 06:35:01;;;;;;;2.37;1.13;;;8.60;99.90;;;;;;5025469;28;20700;-71
2023/04/11 06:37:27;;;;;;;4.47;1.57;;;8.60;99.90;;;;;;5017841;28;20258;-71
2023/04/11 06:39:52;;;;;;;3.43;2.00;;;8.60;99.90;;;;;;5011186;28;20214;-71
2023/04/11 06:42:18;;;;;;;1.60;1.30;;;8.60;99.90;;;;;;5017225;28;20237;-71
2023/04/11 06:44:45;;;;;;;1.77;1.20;;;8.60;99.90;;;;;;5006440;28;20195;-71
2023/04/11 06:47:10;;;;;;;2.90;1.40;;;8.60;99.90;;;;;;5011892;28;20807;-71
2023/04/11 06:49:36;;;;;;;5.53;1.90;;;8.70;99.90;;;;;;5008426;28;20473;-71
2023/04/11 06:52:02;;;;;;;2.80;2.23;;;8.80;99.90;;;;;;5013271;28;20187;-71
2023/04/11 06:54:28;;;;;;;2.17;1.20;;;9.00;99.90;;;;;;5012390;28;20230;-71
2023/04/11 06:56:53;;;;;;;2.07;1.10;;;9.00;99.90;;;;;;5014047;28;20449;-71
2023/04/11 06:59:19;;;;;;;3.03;1.53;;;9.10;99.90;;;;;;5010876;28;22025;-71
2023/04/11 07:01:45;;;;;;;1.97;1.30;;;9.20;99.90;;;;;;5010967;28;20183;-71
2023/04/11 07:04:10;;;;;;;2.60;1.17;;;9.20;99.90;;;;;;5013902;28;20265;-71
2023/04/11 07:06:36;;;;;;;4.07;1.07;;;9.30;99.90;;;;;;5011614;28;20450;-71
2023/04/11 07:09:02;;;;;;;1.50;1.40;;;9.20;99.90;;;;;;5014901;28;20214;-71
2023/04/11 07:11:28;;;;;;;2.10;1.10;;;9.30;99.90;;;;;;5021011;28;21780;-72
2023/04/11 07:13:55;;;;;;;2.80;1.10;;;9.50;99.90;;;;;;5014250;28;20451;-71
2023/04/11 07:16:20;;;;;;;1.50;1.00;;;9.40;99.90;;;;;;5013298;28;20931;-72
2023/04/11 07:18:46;;;;;;;1.97;1.20;;;9.40;99.90;;;;;;5012127;28;20448;-72
2023/04/11 07:21:13;;;;;;;3.30;1.17;;;9.60;99.90;;;;;;5003260;28;20194;-72
2023/04/11 07:23:39;;;;;;;1.57;1.17;;;9.60;99.90;;;;;;5017348;28;20657;-72
2023/04/11 07:26:07;;;;;;;1.70;1.30;;;9.60;99.90;;;;;;5021688;28;20444;-72
2023/04/11 07:28:33;;;;;;;2.10;1.20;;;9.50;99.90;;;;;;5005629;28;20532;-72
2023/04/11 07:30:59;;;;;;;2.70;1.57;;;9.60;99.90;;;;;;5011097;28;20516;-72
2023/04/11 07:33:25;;;;;;;5.33;2.70;;;9.80;99.90;;;;;;5007894;28;22181;-71
2023/04/11 07:35:50;;;;;;;4.50;1.57;;;9.90;99.90;;;;;;5010030;28;20274;-72
2023/04/11 07:38:26;;;;;;;2.07;1.10;;;9.80;99.90;;;;;;5011352;28;20671;-72
2023/04/11 07:40:52;;;;;;;3.33;1.90;;;9.70;99.90;;;;;;5012512;28;20218;-72
2023/04/11 07:43:17;;;;;;;3.33;1.23;;;9.90;99.90;;;;;;5013279;28;20469;-72
2023/04/11 07:45:43;;;;;;;2.17;1.53;;;10.00;99.90;;;;;;5011253;28;20941;-72
2023/04/11 07:48:08;;;;;;;3.50;1.20;;;10.30;99.90;;;;;;5013603;28;20397;-72
2023/04/11 07:50:34;;;;;;;2.80;1.10;;;10.70;99.90;;;;;;5008872;28;20684;-72
2023/04/11 07:53:00;;;;;;;2.90;1.50;;;11.10;99.90;;;;;;5002498;28;20194;-71
2023/04/11 07:55:26;;;;;;;3.77;1.60;;;11.70;99.90;;;;;;5012327;28;20237;-72
2023/04/11 07:57:51;;;;;;;3.97;1.70;;;11.80;99.90;;;;;;5013710;28;20421;-72
2023/04/11 08:00:21;;;;;;;6.43;2.10;;;12.00;99.90;;;;;;5012920;28;20202;-72
2023/04/11 08:02:47;;;;;;;4.03;1.30;;;11.80;99.90;;;;;;5005073;28;20235;-72
2023/04/11 08:05:13;;;;;;;3.60;1.70;;;12.10;99.90;;;;;;5003885;28;21269;-72
2023/04/11 08:07:40;;;;;;;2.70;1.30;;;12.10;99.90;;;;;;5004349;28;20187;-72
2023/04/11 08:10:06;;;;;;;3.20;1.47;;;12.30;99.90;;;;;;5012511;28;20262;-72
2023/04/11 08:12:31;;;;;;;6.87;1.83;;;12.30;99.90;;;;;;5010817;28;20477;-72
2023/04/11 08:14:57;;;;;;;5.40;1.43;;;12.30;99.90;;;;;;5003776;28;20465;-72
2023/04/11 08:17:24;;;;;;;6.10;2.47;;;12.50;99.90;;;;;;4997761;28;20183;-72
2023/04/11 08:19:50;;;;;;;3.17;1.33;;;12.40;99.90;;;;;;4999491;28;20199;-72
2023/04/11 08:22:16;;;;;;;3.83;2.53;;;12.40;99.90;;;;;;5008973;28;20437;-72
2023/04/11 08:24:42;;;;;;;5.70;1.90;;;12.40;99.90;;;;;;5002819;28;20186;-72
2023/04/11 08:27:07;;;;;;;5.10;1.30;;;12.40;99.90;;;;;;5005381;28;20448;-72
2023/04/11 08:29:33;;;;;;;3.60;1.40;;;12.20;99.90;;;;;;5004636;28;20214;-72
2023/04/11 08:31:58;;;;;;;5.00;2.20;;;12.00;99.90;;;;;;5005458;28;20206;-69
2023/04/11 08:34:24;;;;;;;1.97;1.37;;;11.60;99.90;;;;;;5008896;28;20274;-69
2023/04/11 08:36:50;;;;;;;9.60;2.67;;;11.60;99.90;;;;;;5005295;28;20611;-69
2023/04/11 08:39:15;;;;;;;3.80;1.60;;;11.50;99.90;;;;;;5009217;28;20215;-71
2023/04/11 08:41:41;;;;;;;4.60;1.97;;;11.60;99.90;;;;;;5011887;28;20218;-72
2023/04/11 08:44:10;;;;;;;3.23;1.50;;;12.00;99.90;;;;;;5009326;28;20183;-72
2023/04/11 08:46:40;;;;;;;3.93;1.40;;;12.40;99.90;;;;;;5009261;28;20262;-72
2023/04/11 08:49:06;;;;;;;5.67;1.60;;;12.50;99.90;;;;;;5005809;28;20466;-72
2023/04/11 08:51:31;;;;;;;4.00;2.03;;;12.60;99.90;;;;;;5008481;28;20444;-71
2023/04/11 08:54:02;;;;;;;7.60;2.23;;;13.00;99.90;;;;;;5014382;28;20171;-71
2023/04/11 08:56:28;;;;;;;5.53;1.80;;;13.00;99.90;;;;;;5014992;28;20183;-71
2023/04/11 08:58:54;;;;;;;2.40;1.80;;;13.10;99.90;;;;;;5007536;28;20453;-71
2023/04/11 09:01:28;;;;;;;3.20;1.70;;;13.00;99.90;;;;;;5006463;28;20182;-71
2023/04/11 09:03:54;;;;;;;8.60;2.60;;;13.00;99.90;;;;;;5004142;28;20217;-71
2023/04/11 09:06:20;;;;;;;1.80;1.70;;;13.00;99.90;;;;;;5009469;28;20433;-71
2023/04/11 09:08:45;;;;;;;5.53;1.97;;;13.00;99.90;;;;;;5006099;28;20469;-72
2023/04/11 09:11:11;;;;;;;3.43;1.80;;;13.20;99.90;;;;;;5008518;28;20207;-71
2023/04/11 09:13:36;;;;;;;6.07;1.93;;;13.80;99.90;;;;;;5001976;28;21217;-71
2023/04/11 09:16:13;;;;;;;4.60;2.40;;;14.10;99.90;;;;;;5009643;28;20248;-71
2023/04/11 09:18:45;;;;;;;4.23;1.70;;;14.20;99.90;;;;;;5008238;28;20186;-71
2023/04/11 09:21:13;;;;;;;2.57;1.70;;;14.10;99.90;;;;;;5005741;28;20854;-71
2023/04/11 09:23:39;;;;;;;3.50;1.70;;;14.10;99.90;;;;;;5006544;28;20505;-71
2023/04/11 09:26:06;;;;;;;2.90;1.70;;;14.40;99.90;;;;;;5007108;28;20524;-72
2023/04/11 09:28:43;;;;;;;3.07;1.73;;;14.70;99.90;;;;;;5009334;28;20249;-72
2023/04/11 09:31:12;;;;;;;1.83;1.67;;;15.00;99.90;;;;;;5012624;28;20793;-71
2023/04/11 09:33:38;;;;;;;3.83;1.90;;;14.60;99.90;;;;;;5010212;28;20432;-71
2023/04/11 09:36:18;;;;;;;5.73;1.80;;;14.30;99.90;;;;;;5026743;28;20505;-71
2023/04/11 09:38:44;;;;;;;2.07;1.70;;;13.90;99.90;;;;;;5019545;28;20198;-71
2023/04/11 09:41:10;;;;;;;6.20;2.63;;;13.90;99.90;;;;;;5018350;28;20442;-73
2023/04/11 09:43:54;;;;;;;6.10;2.13;;;14.00;99.90;;;;;;5028709;28;20438;-71
2023/04/11 09:46:20;;;;;;;3.60;1.70;;;14.20;99.90;;;;;;5015363;28;20516;-70
2023/04/11 09:48:47;;;;;;;2.33;1.30;;;14.40;99.90;;;;;;5015703;28;20753;-72
2023/04/11 09:51:13;;;;;;;2.50;1.67;;;13.90;99.90;;;;;;5008904;28;20440;-72
2023/04/11 09:53:40;;;;;;;4.43;2.00;;;14.00;99.90;;;;;;5006332;28;20951;-71
2023/04/11 09:56:06;;;;;;;3.13;1.50;;;14.00;99.90;;;;;;5014506;28;20436;-71
2023/04/11 09:58:35;;;;;;;5.90;2.07;;;14.10;99.90;;;;;;5017619;28;20502;-70
2023/04/11 10:01:02;;;;;;;1.57;1.40;;;14.30;99.90;;;;;;5001933;28;22023;-70
2023/04/11 10:03:33;;;;;;;4.63;1.90;;;14.20;99.90;;;;;;5004556;28;20442;-72
2023/04/11 10:06:00;;;;;;;3.30;1.70;;;14.30;99.90;;;;;;5006363;28;20441;-70
2023/04/11 10:08:31;;;;;;;4.63;2.53;;;14.60;99.90;;;;;;5010560;28;20436;-71
2023/04/11 10:11:02;;;;;;;4.13;1.60;;;14.70;99.90;;;;;;5012015;28;20465;-72
2023/04/11 10:13:43;;;;;;;6.07;2.17;;;15.80;99.90;;;;;;5007675;28;20456;-71
2023/04/11 10:16:20;;;;;;;6.23;2.20;;;16.10;99.20;;;;;;5016501;28;20950;-69
2023/04/11 10:18:55;;;;;;;6.63;2.70;;;16.00;97.90;;;;;;5017878;28;20465;-71
2023/04/11 10:21:29;;;;;;;4.07;2.17;;;16.10;98.70;;;;;;5022034;28;20428;-70
2023/04/11 10:24:20;;;;;;;2.73;1.50;;;16.20;96.40;;;;;;5009087;28;20535;-70
2023/04/11 10:26:49;;;;;;;4.40;2.00;;;16.00;96.60;;;;;;5009308;28;20437;-67
2023/04/11 10:29:27;;;;;;;8.80;1.90;;;15.80;97.70;;;;;;5002783;28;20464;-68
2023/04/11 10:32:15;;;;;;;3.03;1.67;;;15.40;97.90;;;;;;5005883;28;20477;-66
2023/04/11 10:35:00;;;;;;;4.30;1.83;;;15.00;99.60;;;;;;5000966;28;20438;-68
2023/04/11 10:37:29;;;;;;;2.77;1.80;;;14.60;99.90;;;;;;4997035;28;20492;-70
2023/04/11 10:39:57;;;;;;;1.90;1.40;;;14.70;99.90;;;;;;5002450;28;20493;-70
2023/04/11 10:42:28;;;;;;;5.90;1.70;;;14.90;99.90;;;;;;5008448;28;20962;-66
2023/04/11 10:45:23;;;;;;;3.97;1.63;;;15.70;98.80;;;;;;5004439;28;20441;-68
2023/04/11 10:48:10;;;;;;;2.40;1.60;;;16.30;97.00;;;;;;5003676;28;20473;-68
2023/04/11 10:50:38;;;;;;;4.07;2.10;;;16.30;93.00;;;;;;5015681;28;20841;-70
2023/04/11 10:53:05;;;;;;;6.73;1.60;;;16.40;93.80;;;;;;5001328;28;20549;-70
2023/04/11 10:55:51;;;;;;;3.50;1.77;;;16.30;92.80;;;;;;5003216;28;20504;-70
2023/04/11 10:58:18;;;;;;;3.20;1.90;;;17.00;92.20;;;;;;5006070;28;20965;-75
2023/04/11 11:00:48;;;;;;;3.23;1.60;;;16.90;90.80;;;;;;5018503;28;20453;-70
2023/04/11 11:03:18;;;;;;;4.87;2.57;;;16.40;91.90;;;;;;5019454;28;20428;-70
2023/04/11 11:05:44;;;;;;;3.90;2.13;;;16.20;93.00;;;;;;5023260;28;20437;-70
2023/04/11 11:08:10;;;;;;;2.80;2.60;;;15.50;94.60;;;;;;5013324;28;20926;-73
2023/04/11 11:10:39;;;;;;;2.30;1.97;;;14.70;96.50;;;;;;5008466;28;20481;-70
2023/04/11 11:13:05;;;;;;;2.57;1.73;;;14.60;99.00;;;;;;5005477;28;20269;-70
2023/04/11 11:15:36;;;;;;;2.63;2.43;;;14.80;99.90;;;;;;5009618;28;20882;-70
2023/04/11 11:18:08;;;;;;;2.10;1.60;;;15.60;98.60;;;;;;5014711;28;20175;-75
2023/04/11 11:20:38;;;;;;;3.17;1.80;;;15.90;99.10;;;;;;5005375;28;20468;-73
2023/04/11 11:23:06;;;;;;;2.53;1.83;;;16.90;97.40;;;;;;5013236;28;20434;-70
2023/04/11 11:25:32;;;;;;;2.37;2.17;;;17.70;94.80;;;;;;5016763;28;20429;-70
2023/04/11 11:28:08;;;;;;;3.77;2.20;;;18.10;91.30;;;;;;5010990;28;20434;-70
2023/04/11 11:30:34;;;;;;;2.73;1.87;;;18.00;91.90;;;;;;5010166;28;20245;-71
2023/04/11 11:33:17;;;;;;;7.00;2.70;;;17.80;86.00;;;;;;5013834;28;20484;-70
2023/04/11 11:35:51;;;;;;;3.63;2.03;;;17.30;85.80;;;;;;5021963;28;20471;-70
2023/04/11 11:38:18;;;;;;;5.70;2.57;;;16.70;84.90;;;;;;5015189;28;20464;-74
2023/04/11 11:40:46;;;;;;;3.40;2.00;;;16.70;83.30;;;;;;5002677;28;20472;-73
2023/04/11 11:43:11;;;;;;;6.57;3.30;;;16.50;83.20;;;;;;5012906;28;20454;-70
2023/04/11 11:45:37;;;;;;;2.97;1.87;;;16.40;85.10;;;;;;5013203;28;21027;-70
2023/04/11 11:48:03;;;;;;;1.93;1.73;;;17.10;84.60;;;;;;5002897;28;20199;-72
2023/04/11 11:50:32;;;;;;;4.03;2.00;;;17.50;80.90;;;;;;5009442;28;20207;-71
2023/04/11 11:53:15;;;;;;;2.10;1.90;;;17.60;82.00;;;;;;5012106;28;20222;-72
2023/04/11 11:55:42;;;;;;;1.77;1.50;;;17.70;77.60;;;;;;5008811;28;20426;-71
2023/04/11 11:58:08;;;;;;;4.77;2.30;;;17.60;74.70;;;;;;5010401;28;20446;-72
2023/04/11 12:00:38;;;;;;;3.20;1.80;;;18.50;71.40;;;;;;5001263;28;20454;-70
2023/04/11 12:03:05;;;;;;;4.30;2.30;;;18.60;72.50;;;;;;5006364;28;20798;-72
2023/04/11 12:05:32;;;;;;;3.20;1.80;;;18.90;69.80;;;;;;5009437;28;20448;-71
2023/04/11 12:07:59;;;;;;;2.23;1.50;;;19.20;67.70;;;;;;5012028;28;20440;-71
2023/04/11 12:10:47;;;;;;;1.67;1.57;;;19.00;68.10;;;;;;5006622;28;20470;-72
2023/04/11 12:13:19;;;;;;;3.13;1.97;;;19.80;65.50;;;;;;5011776;28;20452;-71
2023/04/11 12:15:49;;;;;;;2.97;1.67;;;19.10;65.90;;;;;;5011678;28;20578;-72
2023/04/11 12:18:18;;;;;;;2.37;1.70;;;19.60;62.50;;;;;;5008848;28;20579;-72
2023/04/11 12:20:43;;;;;;;2.10;1.60;;;19.00;62.70;;;;;;5010042;28;20466;-71
2023/04/11 12:23:09;;;;;;;4.50;2.10;;;18.40;63.70;;;;;;5015944;28;20428;-71
2023/04/11 12:25:35;;;;;;;3.47;2.17;;;17.90;62.80;;;;;;5002495;28;20182;-71
2023/04/11 12:28:00;;;;;;;3.20;2.07;;;17.70;62.20;;;;;;5016129;28;20558;-71
2023/04/11 12:30:26;;;;;;;3.30;2.40;;;17.40;65.40;;;;;;5011235;28;20280;-71
2023/04/11 12:32:52;;;;;;;2.43;1.80;;;16.90;65.20;;;;;;5013954;28;20179;-70
2023/04/11 12:35:17;;;;;;;3.90;2.40;;;16.50;67.20;;;;;;5026460;28;20182;-70
2023/04/11 12:37:43;;;;;;;3.00;1.70;;;16.40;67.00;;;;;;5016372;28;20184;-71
2023/04/11 12:40:10;;;;;;;4.80;2.13;;;16.70;65.20;;;;;;5017342;28;20561;-71
2023/04/11 12:42:38;;;;;;;8.80;4.93;;;16.80;64.90;;;;;;5016689;28;20194;-71
2023/04/11 12:45:06;;;;;;;3.97;1.70;;;16.40;66.60;;;;;;5008641;28;20533;-72
2023/04/11 12:47:31;;;;;;;8.10;1.77;;;16.20;67.70;;;;;;5009202;28;20445;-70
2023/04/11 12:49:57;;;;;;;1.77;1.67;;;16.60;67.50;;;;;;4995638;28;20471;-71